Terminal Aerodrome Forecast
Issued by NWS Wilmington, OH

Home | Current Version | Previous Version | Text Only | Print | Product List | Glossary On
Versions: 1 2 3 4 5 6 7 8 9 10 11 12 13 14 15 16 17 18 19 20
000
FTUS41 KILN 211000 AAB
TAFCMH
TAF AMD
KCMH 211015Z 2110/2206 21009KT P6SM VCSH BKN050
     FM211100 23010KT P6SM SCT015 BKN025
     FM211300 24012KT P6SM OVC020
     FM211500 26014G23KT P6SM SCT035
     FM212000 29017G27KT P6SM BKN050
     FM220200 30012KT P6SM OVC040=

USA.gov is the U.S. government's official web portal to all federal, state and local government web resources and services.